Time;durP1;ratioP1;P1;durP2;ratioP2;P2;SDS_P1;SDS_P2;PMS_P1;PMS_P2;Temp;Humidity;BMP_temperature;BMP_pressure;BME280_temperature;BME280_humidity;BME280_pressure;Samples;Min_cycle;Max_cycle;Signal;HPM_P1;HPM_P2
2021/05/29 00:00:15;;;;;;;11.00;10.40;;;24.00;60.60;;;;;;3613935;39;20560;-47
2021/05/29 00:02:42;;;;;;;10.87;10.47;;;24.00;60.60;;;;;;3618377;39;20807;-48
2021/05/29 00:05:09;;;;;;;11.23;10.83;;;24.00;60.60;;;;;;3617598;39;20552;-48
2021/05/29 00:07:35;;;;;;;10.63;10.23;;;24.00;60.70;;;;;;3617852;39;20511;-48
2021/05/29 00:10:04;;;;;;;11.90;11.40;;;24.00;60.70;;;;;;3617965;39;20471;-47
2021/05/29 00:12:30;;;;;;;11.23;10.83;;;24.00;60.70;;;;;;3618135;39;20475;-47
2021/05/29 00:14:57;;;;;;;11.00;10.60;;;24.00;60.80;;;;;;3618760;39;20468;-47
2021/05/29 00:17:24;;;;;;;11.13;10.63;;;24.00;61.60;;;;;;3618136;39;20491;-47
2021/05/29 00:19:51;;;;;;;11.37;10.87;;;24.00;60.90;;;;;;3617915;39;20565;-47
2021/05/29 00:22:18;;;;;;;10.30;9.90;;;24.00;60.90;;;;;;3617777;39;20918;-47
2021/05/29 00:24:45;;;;;;;10.63;10.23;;;24.00;61.00;;;;;;3618721;39;20490;-47
2021/05/29 00:27:13;;;;;;;10.50;10.10;;;23.90;60.90;;;;;;3617706;39;20471;-48
2021/05/29 00:29:40;;;;;;;10.90;10.40;;;23.90;61.00;;;;;;3617224;39;20479;-47
2021/05/29 00:32:07;;;;;;;10.47;10.07;;;23.90;61.00;;;;;;3616936;39;21128;-48
2021/05/29 00:34:34;;;;;;;11.63;11.03;;;23.90;61.10;;;;;;3617407;39;20472;-47
2021/05/29 00:37:01;;;;;;;10.53;10.13;;;23.90;61.10;;;;;;3617761;39;20476;-47
2021/05/29 00:39:27;;;;;;;10.93;10.43;;;23.90;61.10;;;;;;3617776;39;20483;-47
2021/05/29 00:41:54;;;;;;;10.43;10.03;;;23.90;61.10;;;;;;3617555;39;20482;-47
2021/05/29 00:44:20;;;;;;;10.60;10.10;;;23.90;61.10;;;;;;3619010;39;20841;-46
2021/05/29 00:46:47;;;;;;;11.03;10.53;;;23.90;61.20;;;;;;3618293;39;20487;-47
2021/05/29 00:49:14;;;;;;;11.40;10.90;;;23.90;61.20;;;;;;3618015;39;20475;-49
2021/05/29 00:51:41;;;;;;;10.70;10.20;;;23.90;61.20;;;;;;3618123;39;20580;-47
2021/05/29 00:54:11;;;;;;;10.70;10.30;;;23.90;61.30;;;;;;3618563;39;20506;-48
2021/05/29 00:56:38;;;;;;;10.83;10.33;;;23.90;61.30;;;;;;3618451;39;20475;-47
2021/05/29 00:59:05;;;;;;;10.40;10.00;;;23.90;61.30;;;;;;3618670;39;20565;-47
2021/05/29 01:01:32;;;;;;;10.47;10.07;;;23.80;61.20;;;;;;3617585;39;20479;-47
2021/05/29 01:03:58;;;;;;;10.70;9.90;;;23.80;61.20;;;;;;3618037;39;20507;-47
2021/05/29 01:06:26;;;;;;;11.07;10.50;;;23.80;61.30;;;;;;3608020;39;20502;-47
2021/05/29 01:08:53;;;;;;;10.30;9.90;;;23.80;61.30;;;;;;3617146;39;20534;-47
2021/05/29 01:11:20;;;;;;;10.17;9.77;;;23.80;61.40;;;;;;3617421;39;20478;-47
2021/05/29 01:13:47;;;;;;;10.93;10.53;;;23.80;61.30;;;;;;3617430;39;21101;-47
2021/05/29 01:16:21;;;;;;;10.30;9.90;;;23.80;61.40;;;;;;3618069;39;20505;-47
2021/05/29 01:18:48;;;;;;;10.73;10.33;;;23.80;61.40;;;;;;3618393;39;20561;-48
2021/05/29 01:21:14;;;;;;;10.33;9.93;;;23.80;61.40;;;;;;3617128;39;20536;-47
2021/05/29 01:23:42;;;;;;;10.20;9.80;;;23.80;61.40;;;;;;3608408;39;20484;-47
2021/05/29 01:26:09;;;;;;;11.07;10.57;;;23.80;62.20;;;;;;3617442;39;20498;-47
2021/05/29 01:28:36;;;;;;;10.90;10.50;;;23.80;61.50;;;;;;3617801;39;20481;-47
2021/05/29 01:31:08;;;;;;;10.90;10.50;;;23.80;61.50;;;;;;3617699;39;20459;-46
2021/05/29 01:33:37;;;;;;;10.90;10.50;;;23.80;61.50;;;;;;3617069;39;20495;-48
2021/05/29 01:36:06;;;;;;;10.77;10.33;;;23.80;61.60;;;;;;3617105;39;20814;-47
2021/05/29 01:38:33;;;;;;;10.87;10.47;;;23.80;61.60;;;;;;3617590;39;20476;-47
2021/05/29 01:41:04;;;;;;;10.57;10.17;;;23.80;61.60;;;;;;3617842;39;20483;-48
2021/05/29 01:43:31;;;;;;;10.57;10.17;;;23.80;61.70;;;;;;3618130;39;21122;-47
2021/05/29 01:45:59;;;;;;;10.53;10.13;;;23.80;61.60;;;;;;3608553;39;20471;-47
2021/05/29 01:48:32;;;;;;;10.53;10.10;;;23.80;61.60;;;;;;3618283;39;20490;-47
2021/05/29 01:50:59;;;;;;;10.90;10.50;;;23.80;61.60;;;;;;3608129;39;20929;-48
2021/05/29 01:53:26;;;;;;;10.60;10.20;;;23.80;62.40;;;;;;3617598;39;20962;-48
2021/05/29 01:55:53;;;;;;;10.43;10.03;;;23.80;61.60;;;;;;3616715;39;20471;-47
2021/05/29 01:58:20;;;;;;;10.93;10.47;;;23.80;61.70;;;;;;3617418;39;20553;-47
2021/05/29 02:00:47;;;;;;;10.57;10.17;;;23.70;61.60;;;;;;3617231;39;20698;-47
2021/05/29 02:03:14;;;;;;;11.20;10.70;;;23.70;61.70;;;;;;3616859;39;20479;-47
2021/05/29 02:05:41;;;;;;;10.93;10.43;;;23.70;61.60;;;;;;3616928;39;20559;-48
2021/05/29 02:08:10;;;;;;;11.17;10.77;;;23.70;61.60;;;;;;3616696;39;20471;-47
2021/05/29 02:10:39;;;;;;;11.63;11.13;;;23.70;61.70;;;;;;3618205;39;20708;-47
2021/05/29 02:13:08;;;;;;;10.70;10.30;;;23.70;61.70;;;;;;3617864;39;20484;-47
2021/05/29 02:15:38;;;;;;;10.70;10.30;;;23.70;61.70;;;;;;3617765;39;20476;-47
2021/05/29 02:18:07;;;;;;;11.20;10.80;;;23.70;61.80;;;;;;3617758;39;20494;-47
2021/05/29 02:20:40;;;;;;;12.00;11.50;;;23.70;61.80;;;;;;3617742;39;20644;-49
2021/05/29 02:23:07;;;;;;;11.23;10.83;;;23.70;62.60;;;;;;3617726;39;20480;-47
2021/05/29 02:25:34;;;;;;;10.43;10.03;;;23.70;61.80;;;;;;3617751;39;20576;-47
2021/05/29 02:28:02;;;;;;;11.03;10.57;;;23.70;61.90;;;;;;3617354;39;20712;-47
2021/05/29 02:30:29;;;;;;;10.63;10.23;;;23.70;61.90;;;;;;3607729;39;20471;-48
2021/05/29 02:32:56;;;;;;;11.27;10.80;;;23.70;62.00;;;;;;3617310;39;20475;-47
2021/05/29 02:35:22;;;;;;;11.03;10.63;;;23.70;62.00;;;;;;3617260;39;20989;-47
2021/05/29 02:37:49;;;;;;;11.00;10.50;;;23.70;62.00;;;;;;3616238;39;20479;-47
2021/05/29 02:40:16;;;;;;;10.93;10.53;;;23.70;62.00;;;;;;3608195;39;20613;-47
2021/05/29 02:42:43;;;;;;;11.47;10.97;;;23.70;62.10;;;;;;3617270;39;20460;-47
2021/05/29 02:45:11;;;;;;;11.90;11.30;;;23.60;62.00;;;;;;3617136;39;20474;-47
2021/05/29 02:47:38;;;;;;;11.00;10.60;;;23.60;62.00;;;;;;3617943;39;20495;-47
2021/05/29 02:50:07;;;;;;;10.37;9.97;;;23.60;62.00;;;;;;3607582;39;20475;-48
2021/05/29 02:52:34;;;;;;;11.17;10.67;;;23.60;62.70;;;;;;3616666;39;20475;-47
2021/05/29 02:55:00;;;;;;;11.10;10.70;;;23.60;62.00;;;;;;3617083;39;20467;-47
2021/05/29 02:57:27;;;;;;;11.43;10.93;;;23.60;62.00;;;;;;3617803;39;20472;-47
2021/05/29 02:59:54;;;;;;;11.23;10.83;;;23.60;62.10;;;;;;3617494;39;20826;-47
2021/05/29 03:02:21;;;;;;;11.17;10.77;;;23.60;62.10;;;;;;3617320;39;20575;-48
2021/05/29 03:04:47;;;;;;;11.87;11.30;;;23.60;62.20;;;;;;3617172;39;20483;-48
2021/05/29 03:07:15;;;;;;;12.20;11.70;;;23.60;62.20;;;;;;3617651;39;20575;-47
2021/05/29 03:09:41;;;;;;;11.87;11.47;;;23.60;62.20;;;;;;3608588;39;20466;-47
2021/05/29 03:12:09;;;;;;;11.47;11.07;;;23.60;62.20;;;;;;3617626;39;20460;-48
2021/05/29 03:14:35;;;;;;;12.07;11.57;;;23.60;62.20;;;;;;3616952;39;20561;-47
2021/05/29 03:17:03;;;;;;;11.73;11.23;;;23.60;62.20;;;;;;3617177;39;20476;-47
2021/05/29 03:19:29;;;;;;;11.47;11.07;;;23.60;62.30;;;;;;3616771;39;20475;-47
2021/05/29 03:21:56;;;;;;;12.53;12.03;;;23.60;62.30;;;;;;3617049;39;20894;-47
2021/05/29 03:24:24;;;;;;;11.80;11.40;;;23.60;62.30;;;;;;3616940;39;20519;-47
2021/05/29 03:26:50;;;;;;;11.40;10.97;;;23.60;62.30;;;;;;3617039;39;20471;-47
2021/05/29 03:29:17;;;;;;;11.77;11.27;;;23.60;62.30;;;;;;3616757;39;20479;-47
2021/05/29 03:31:43;;;;;;;11.83;11.37;;;23.60;62.30;;;;;;3616811;39;20463;-47
2021/05/29 03:34:11;;;;;;;11.93;11.43;;;23.60;62.30;;;;;;3616994;39;20908;-47
2021/05/29 03:36:37;;;;;;;11.73;11.30;;;23.60;62.20;;;;;;3616426;39;20470;-47
2021/05/29 03:39:05;;;;;;;12.10;11.50;;;23.60;62.20;;;;;;3616795;39;20475;-47
2021/05/29 03:41:32;;;;;;;11.27;10.87;;;23.70;62.30;;;;;;3617149;39;20907;-47
2021/05/29 03:44:01;;;;;;;11.57;11.13;;;23.70;62.20;;;;;;3607878;39;20467;-47
2021/05/29 03:46:27;;;;;;;11.03;10.67;;;23.70;62.20;;;;;;3616651;39;20714;-47
2021/05/29 03:48:54;;;;;;;12.07;11.57;;;23.70;62.10;;;;;;3617366;39;20485;-48
2021/05/29 03:51:20;;;;;;;12.37;11.90;;;23.80;62.20;;;;;;3617224;39;20480;-47
2021/05/29 03:53:47;;;;;;;12.00;11.60;;;23.80;62.20;;;;;;3617316;39;20502;-47
2021/05/29 03:56:14;;;;;;;11.50;11.10;;;23.80;62.10;;;;;;3616620;39;20483;-47
2021/05/29 03:58:41;;;;;;;12.03;11.53;;;23.80;62.00;;;;;;3616189;39;20498;-47
2021/05/29 04:01:08;;;;;;;11.53;11.13;;;23.80;62.00;;;;;;3606729;39;20481;-48
2021/05/29 04:03:35;;;;;;;11.70;11.30;;;23.90;62.10;;;;;;3616158;39;20467;-47
2021/05/29 04:06:02;;;;;;;11.93;11.43;;;23.90;62.00;;;;;;3617669;39;21202;-48
2021/05/29 04:08:29;;;;;;;11.90;11.40;;;24.00;62.00;;;;;;3618066;39;20482;-48
2021/05/29 04:10:55;;;;;;;12.00;11.60;;;24.00;61.90;;;;;;3617588;39;20487;-47
2021/05/29 04:13:22;;;;;;;11.63;11.20;;;24.00;61.80;;;;;;3617426;39;20477;-47
2021/05/29 04:15:50;;;;;;;11.10;10.60;;;24.00;61.80;;;;;;3618401;39;20483;-47
2021/05/29 04:18:16;;;;;;;11.57;11.07;;;24.10;61.70;;;;;;3618043;39;20499;-47
2021/05/29 04:20:43;;;;;;;11.47;11.07;;;24.10;61.70;;;;;;3617332;39;20489;-48
2021/05/29 04:23:10;;;;;;;11.30;10.90;;;24.10;61.70;;;;;;3617461;39;20790;-47
2021/05/29 04:25:36;;;;;;;11.70;11.30;;;24.20;61.70;;;;;;3617486;39;20498;-47
2021/05/29 04:28:03;;;;;;;11.83;11.43;;;24.20;61.60;;;;;;3617050;39;20738;-48
2021/05/29 04:30:30;;;;;;;11.97;11.57;;;24.20;61.50;;;;;;3616679;39;20993;-47
2021/05/29 04:32:58;;;;;;;12.40;11.90;;;24.30;61.60;;;;;;3617344;39;20526;-48
2021/05/29 04:35:25;;;;;;;12.13;11.67;;;24.30;61.50;;;;;;3618012;39;20482;-47
2021/05/29 04:37:52;;;;;;;10.83;10.43;;;24.40;61.40;;;;;;3617441;39;20481;-47
2021/05/29 04:40:21;;;;;;;11.30;10.90;;;24.40;61.30;;;;;;3616890;39;20966;-47
2021/05/29 04:42:48;;;;;;;11.70;11.20;;;24.50;61.30;;;;;;3617133;39;20480;-47
2021/05/29 04:45:15;;;;;;;11.90;11.43;;;24.50;61.20;;;;;;3616646;39;20483;-47
2021/05/29 04:47:42;;;;;;;11.50;11.10;;;24.50;61.20;;;;;;3617636;39;20501;-47
2021/05/29 04:50:12;;;;;;;11.43;11.03;;;24.60;61.30;;;;;;3608234;39;20478;-48
2021/05/29 04:52:39;;;;;;;11.85;11.30;;;24.60;61.20;;;;;;3617030;39;20493;-47
2021/05/29 04:55:06;;;;;;;11.83;11.33;;;24.60;61.20;;;;;;3617073;39;20750;-48
2021/05/29 04:57:33;;;;;;;11.60;11.20;;;24.60;61.10;;;;;;3616935;39;20475;-47
2021/05/29 04:59:59;;;;;;;11.90;11.43;;;24.60;61.10;;;;;;3617679;39;20743;-47
2021/05/29 05:02:26;;;;;;;11.17;10.77;;;24.70;61.10;;;;;;3617212;39;20492;-48
2021/05/29 05:04:53;;;;;;;11.90;11.40;;;24.70;61.10;;;;;;3617052;39;20507;-47
2021/05/29 05:07:20;;;;;;;11.53;11.13;;;24.70;61.10;;;;;;3616192;39;20468;-49
2021/05/29 05:09:47;;;;;;;11.90;11.40;;;24.70;61.00;;;;;;3614671;39;20479;-48
2021/05/29 05:12:14;;;;;;;11.93;11.43;;;24.70;61.00;;;;;;3616385;39;20479;-48
2021/05/29 05:14:40;;;;;;;11.53;11.13;;;24.80;61.00;;;;;;3616263;39;20588;-47
2021/05/29 05:17:07;;;;;;;10.20;9.80;;;24.80;61.00;;;;;;3615999;39;20608;-47
2021/05/29 05:19:33;;;;;;;11.10;10.70;;;24.70;60.90;;;;;;3615769;39;21022;-47
2021/05/29 05:22:00;;;;;;;11.20;10.80;;;24.80;61.00;;;;;;3615298;39;20487;-47
2021/05/29 05:24:28;;;;;;;10.73;10.33;;;24.80;61.00;;;;;;3616755;39;20494;-47
2021/05/29 05:26:54;;;;;;;11.13;10.73;;;24.80;61.00;;;;;;3616649;39;20584;-47
2021/05/29 05:29:21;;;;;;;11.03;10.63;;;24.80;61.00;;;;;;3616283;39;20467;-47
2021/05/29 05:31:48;;;;;;;11.40;10.70;;;24.80;60.90;;;;;;3616633;39;20524;-47
2021/05/29 05:34:15;;;;;;;11.83;11.33;;;24.90;61.00;;;;;;3616953;39;20523;-47
2021/05/29 05:36:42;;;;;;;11.40;11.00;;;24.90;60.90;;;;;;3616201;39;20470;-47
2021/05/29 05:39:13;;;;;;;11.30;10.90;;;24.90;60.90;;;;;;3615828;39;20471;-48
2021/05/29 05:41:42;;;;;;;11.23;10.83;;;24.90;60.90;;;;;;3616074;39;20518;-47
2021/05/29 05:44:09;;;;;;;10.70;10.30;;;24.90;60.90;;;;;;3616437;39;20471;-48
2021/05/29 05:46:37;;;;;;;10.90;10.50;;;24.90;61.60;;;;;;3615680;39;20479;-47
2021/05/29 05:49:05;;;;;;;11.00;10.60;;;24.90;61.50;;;;;;3614907;39;20487;-47
2021/05/29 05:51:33;;;;;;;11.40;10.90;;;25.00;60.90;;;;;;3615388;39;20473;-47
2021/05/29 05:54:00;;;;;;;11.70;11.30;;;25.00;60.90;;;;;;3615078;39;20482;-47
2021/05/29 05:56:26;;;;;;;12.07;11.60;;;25.00;60.90;;;;;;3614833;39;20468;-47
2021/05/29 05:58:56;;;;;;;11.83;11.23;;;25.00;60.90;;;;;;3614734;39;20480;-47
2021/05/29 06:01:24;;;;;;;11.07;10.67;;;25.00;60.90;;;;;;3614431;39;20467;-47
2021/05/29 06:03:50;;;;;;;11.03;10.63;;;25.00;60.90;;;;;;3615180;39;20479;-47
2021/05/29 06:06:17;;;;;;;11.60;11.00;;;25.00;60.80;;;;;;3615017;39;20479;-47
2021/05/29 06:08:44;;;;;;;11.67;11.17;;;25.00;60.70;;;;;;3615363;39;20479;-47
2021/05/29 06:11:11;;;;;;;11.80;11.10;;;25.10;60.80;;;;;;3615720;39;21317;-48
2021/05/29 06:19:14;;;;;;;11.40;10.90;;;25.10;61.00;;;;;;3616401;39;20499;-47
2021/05/29 06:21:45;;;;;;;12.20;11.50;;;25.10;60.70;;;;;;3616180;39;20487;-47
2021/05/29 06:24:13;;;;;;;11.30;10.70;;;25.10;60.80;;;;;;3616069;39;20467;-47
2021/05/29 06:26:40;;;;;;;10.90;10.50;;;25.10;60.90;;;;;;3615200;39;20924;-47
2021/05/29 06:29:07;;;;;;;11.10;10.60;;;25.00;61.00;;;;;;3614452;39;20475;-48
2021/05/29 06:31:35;;;;;;;11.27;10.77;;;25.00;61.10;;;;;;3615506;39;20560;-47
2021/05/29 06:34:02;;;;;;;11.73;11.03;;;24.60;56.00;;;;;;3615888;39;20854;-47
2021/05/29 06:36:30;;;;;;;11.77;11.17;;;24.10;55.80;;;;;;3615539;39;20476;-48
2021/05/29 06:38:56;;;;;;;11.07;10.60;;;23.60;56.30;;;;;;3614819;39;20548;-48
2021/05/29 06:41:23;;;;;;;10.80;10.40;;;23.30;55.70;;;;;;3614434;39;20499;-49
2021/05/29 06:43:50;;;;;;;10.73;10.30;;;23.10;55.00;;;;;;3615507;39;20587;-47
2021/05/29 06:46:17;;;;;;;10.77;10.30;;;22.90;55.10;;;;;;3615101;39;20479;-48
2021/05/29 06:48:45;;;;;;;10.40;10.00;;;22.80;55.90;;;;;;3614303;39;20487;-48
2021/05/29 06:51:13;;;;;;;10.70;10.00;;;22.60;56.60;;;;;;3614945;39;20709;-48
2021/05/29 06:53:43;;;;;;;10.63;10.23;;;22.50;56.50;;;;;;3615844;39;20491;-47
2021/05/29 06:58:55;;;;;;;10.63;10.23;;;22.40;55.90;;;;;;3614778;39;20478;-47
2021/05/29 07:01:24;;;;;;;10.37;9.93;;;22.40;55.80;;;;;;3613202;39;21048;-48
2021/05/29 07:03:53;;;;;;;10.23;9.87;;;22.40;56.00;;;;;;3614050;39;20479;-48
2021/05/29 07:06:22;;;;;;;10.23;9.83;;;22.40;55.30;;;;;;3605329;39;20851;-47
2021/05/29 07:08:48;;;;;;;10.20;9.80;;;22.30;55.40;;;;;;3612676;39;20699;-47
2021/05/29 07:11:15;;;;;;;9.97;9.67;;;22.40;55.00;;;;;;3612665;39;20850;-47
2021/05/29 07:13:42;;;;;;;9.87;9.37;;;22.60;54.70;;;;;;3612604;39;20511;-48
2021/05/29 07:16:09;;;;;;;10.73;10.10;;;22.70;55.30;;;;;;3611782;39;20654;-47
2021/05/29 07:18:44;;;;;;;10.50;10.10;;;22.80;55.10;;;;;;3611165;39;20509;-47
2021/05/29 07:21:11;;;;;;;10.87;10.10;;;22.80;54.90;;;;;;3611752;39;20489;-47
2021/05/29 07:23:38;;;;;;;10.90;10.40;;;22.80;54.60;;;;;;3611720;39;20483;-47
2021/05/29 07:26:05;;;;;;;10.30;9.87;;;22.80;55.10;;;;;;3611361;39;20475;-48
2021/05/29 07:28:32;;;;;;;10.50;9.90;;;22.90;54.00;;;;;;3611725;39;20475;-47
2021/05/29 07:30:58;;;;;;;9.80;9.43;;;23.00;53.10;;;;;;3612118;39;20477;-48
2021/05/29 07:33:26;;;;;;;10.93;10.33;;;23.10;53.10;;;;;;3612175;39;20702;-47
2021/05/29 07:35:54;;;;;;;11.30;10.70;;;23.30;54.70;;;;;;3610853;39;20536;-47
2021/05/29 07:38:22;;;;;;;10.07;9.73;;;23.50;55.50;;;;;;3612925;39;20479;-47
2021/05/29 07:40:48;;;;;;;11.07;10.53;;;23.70;55.90;;;;;;3613119;39;20578;-47
2021/05/29 07:43:15;;;;;;;11.50;11.00;;;23.80;56.00;;;;;;3612821;39;20814;-47
2021/05/29 07:45:42;;;;;;;10.90;10.40;;;24.00;56.20;;;;;;3612212;39;20815;-47
2021/05/29 07:48:08;;;;;;;11.03;10.63;;;24.10;56.40;;;;;;3611904;39;20471;-47
2021/05/29 07:50:56;;;;;;;11.10;10.60;;;24.20;56.50;;;;;;3611080;39;20882;-47
2021/05/29 07:53:23;;;;;;;10.53;10.03;;;24.30;56.60;;;;;;3610461;39;20661;-48
2021/05/29 07:55:50;;;;;;;10.93;10.50;;;24.40;56.70;;;;;;3609812;39;20686;-48
2021/05/29 07:58:17;;;;;;;11.47;10.63;;;24.40;56.70;;;;;;3611490;39;20680;-47
2021/05/29 08:00:49;;;;;;;11.10;10.60;;;24.50;56.80;;;;;;3610736;39;20554;-48
2021/05/29 08:03:15;;;;;;;12.20;11.60;;;24.50;56.90;;;;;;3610058;39;20857;-47
2021/05/29 08:05:42;;;;;;;11.43;11.03;;;24.60;57.00;;;;;;3611898;39;20482;-47
2021/05/29 08:08:08;;;;;;;11.47;10.93;;;24.60;57.00;;;;;;3602849;39;20817;-47
2021/05/29 08:10:36;;;;;;;12.23;11.60;;;24.60;57.10;;;;;;3611308;39;20869;-47
2021/05/29 08:13:03;;;;;;;11.20;10.70;;;24.70;57.30;;;;;;3611493;39;20812;-47
2021/05/29 08:15:30;;;;;;;11.60;11.20;;;24.70;57.30;;;;;;3611211;39;20502;-47
2021/05/29 08:17:56;;;;;;;11.13;10.67;;;24.70;57.30;;;;;;3611005;39;20501;-48
2021/05/29 08:20:23;;;;;;;11.57;10.97;;;24.70;57.40;;;;;;3610985;39;20509;-47
2021/05/29 08:22:50;;;;;;;12.47;11.97;;;24.70;57.50;;;;;;3611674;39;20478;-47
2021/05/29 08:25:17;;;;;;;11.87;11.30;;;24.80;57.60;;;;;;3602461;39;20479;-48
2021/05/29 08:27:44;;;;;;;11.30;10.90;;;24.80;57.70;;;;;;3610689;39;20471;-47
2021/05/29 08:30:12;;;;;;;11.30;10.80;;;24.80;57.70;;;;;;3610615;39;20470;-47
2021/05/29 08:32:39;;;;;;;11.97;11.40;;;24.80;57.80;;;;;;3610032;39;20471;-47
2021/05/29 08:35:07;;;;;;;12.27;11.77;;;24.80;58.30;;;;;;3611974;39;20497;-47
2021/05/29 08:37:34;;;;;;;11.47;11.00;;;24.80;57.80;;;;;;3611115;39;20541;-50
2021/05/29 08:40:00;;;;;;;11.33;10.87;;;24.80;57.80;;;;;;3611516;39;20822;-47
2021/05/29 08:42:27;;;;;;;11.70;11.20;;;24.80;57.90;;;;;;3609526;39;20491;-49
2021/05/29 08:44:58;;;;;;;12.10;11.60;;;24.80;57.90;;;;;;3609622;39;20491;-47
2021/05/29 08:47:25;;;;;;;12.03;11.50;;;24.80;58.00;;;;;;3610866;39;20475;-47
2021/05/29 08:49:52;;;;;;;12.03;11.53;;;24.90;58.10;;;;;;3608362;39;20928;-48
2021/05/29 08:52:20;;;;;;;11.57;11.17;;;24.90;58.10;;;;;;3609405;39;20483;-48
2021/05/29 08:54:47;;;;;;;12.00;11.50;;;24.90;58.10;;;;;;3611951;39;20514;-47
2021/05/29 08:57:15;;;;;;;11.67;11.20;;;24.90;58.20;;;;;;3611129;39;20487;-47
2021/05/29 08:59:42;;;;;;;11.97;11.47;;;24.90;58.20;;;;;;3610639;39;20547;-48
2021/05/29 09:02:10;;;;;;;12.03;11.43;;;24.90;58.20;;;;;;3610242;39;20573;-48
2021/05/29 09:05:05;;;;;;;11.80;11.20;;;24.90;58.30;;;;;;3610052;39;20532;-48
2021/05/29 09:07:32;;;;;;;11.80;11.27;;;25.00;58.40;;;;;;3601659;39;20486;-47
2021/05/29 09:10:15;;;;;;;11.67;11.20;;;24.90;58.30;;;;;;3610019;39;20807;-47
2021/05/29 09:13:03;;;;;;;11.30;10.80;;;24.90;58.40;;;;;;3608616;39;20585;-48
2021/05/29 09:15:44;;;;;;;11.93;11.23;;;24.90;58.50;;;;;;3607175;39;20762;-47
2021/05/29 09:18:32;;;;;;;11.67;11.17;;;24.90;58.50;;;;;;3601455;39;20501;-48
2021/05/29 09:21:33;;;;;;;11.50;10.90;;;24.90;58.50;;;;;;3601001;39;20574;-47
2021/05/29 09:24:02;;;;;;;12.10;11.60;;;24.90;59.20;;;;;;3599057;39;20496;-48
2021/05/29 09:26:44;;;;;;;11.90;11.30;;;24.90;58.60;;;;;;3598047;39;20518;-49
2021/05/29 09:29:13;;;;;;;13.13;12.53;;;24.80;58.70;;;;;;3598718;39;20936;-47
2021/05/29 09:31:53;;;;;;;11.50;11.00;;;24.80;58.70;;;;;;3599103;39;20479;-47
2021/05/29 09:34:37;;;;;;;12.53;12.03;;;24.80;58.80;;;;;;3602137;39;21294;-48
2021/05/29 09:37:06;;;;;;;11.60;11.10;;;24.80;58.90;;;;;;3610537;39;20477;-48
2021/05/29 09:39:34;;;;;;;11.70;11.20;;;24.80;59.00;;;;;;3601299;39;20504;-48
2021/05/29 09:42:01;;;;;;;12.33;11.70;;;24.80;59.00;;;;;;3601255;39;20480;-48
2021/05/29 09:44:28;;;;;;;12.63;12.13;;;24.80;59.00;;;;;;3601871;39;20467;-47
2021/05/29 09:46:56;;;;;;;12.50;11.90;;;24.70;58.90;;;;;;3604537;39;20483;-48
2021/05/29 09:49:26;;;;;;;11.73;11.20;;;24.80;59.10;;;;;;3611372;39;20482;-47
2021/05/29 09:51:54;;;;;;;11.00;10.60;;;24.80;59.10;;;;;;3611328;39;20475;-47
2021/05/29 09:54:24;;;;;;;11.93;11.50;;;24.70;59.10;;;;;;3611472;39;20531;-47
2021/05/29 09:57:02;;;;;;;12.00;11.37;;;24.70;59.20;;;;;;3612290;39;20576;-48
2021/05/29 09:59:29;;;;;;;12.10;11.60;;;24.70;59.20;;;;;;3607247;39;20486;-47
2021/05/29 10:01:58;;;;;;;11.97;11.47;;;24.70;59.20;;;;;;3608975;39;20576;-48
2021/05/29 10:04:37;;;;;;;12.20;11.70;;;24.70;59.20;;;;;;3601269;39;20566;-50
2021/05/29 10:07:06;;;;;;;12.50;11.90;;;24.70;59.30;;;;;;3606697;39;20471;-47
2021/05/29 10:09:33;;;;;;;11.93;11.43;;;24.70;59.40;;;;;;3612328;39;20531;-48
2021/05/29 10:12:02;;;;;;;12.40;11.90;;;24.60;59.30;;;;;;3610913;39;20475;-47
2021/05/29 10:14:30;;;;;;;11.50;11.10;;;24.60;59.30;;;;;;3609466;39;20479;-48
2021/05/29 10:16:58;;;;;;;12.03;11.50;;;24.60;59.40;;;;;;3610060;39;20528;-48
2021/05/29 10:19:25;;;;;;;11.47;10.97;;;24.60;59.40;;;;;;3602873;39;20480;-47
2021/05/29 10:21:53;;;;;;;11.30;10.77;;;24.60;59.40;;;;;;3602446;39;20488;-47
2021/05/29 10:24:21;;;;;;;11.50;11.00;;;24.60;59.50;;;;;;3610628;39;20482;-48
2021/05/29 10:26:50;;;;;;;11.50;11.00;;;24.60;59.50;;;;;;3610321;39;21278;-47
2021/05/29 10:29:18;;;;;;;10.50;10.10;;;24.60;59.50;;;;;;3599529;39;20484;-48
2021/05/29 10:31:45;;;;;;;10.70;10.20;;;24.50;59.60;;;;;;3599462;39;20476;-47
2021/05/29 10:34:11;;;;;;;11.77;11.07;;;24.50;59.60;;;;;;3610845;39;20495;-48
2021/05/29 10:36:44;;;;;;;12.20;11.60;;;24.50;59.70;;;;;;3601541;39;21148;-48
2021/05/29 10:39:14;;;;;;;12.03;11.50;;;24.50;59.70;;;;;;3596221;39;20515;-47
2021/05/29 10:41:56;;;;;;;11.47;10.97;;;24.50;59.80;;;;;;3597187;39;20536;-47
2021/05/29 10:44:38;;;;;;;11.20;10.70;;;24.50;59.80;;;;;;3595106;39;20791;-48
2021/05/29 10:47:08;;;;;;;11.40;10.90;;;24.50;59.80;;;;;;3597795;39;20930;-48
2021/05/29 10:49:57;;;;;;;11.60;11.10;;;24.50;59.80;;;;;;3596010;39;20860;-47
2021/05/29 10:52:49;;;;;;;11.60;11.10;;;24.50;59.90;;;;;;3595883;39;20596;-47
2021/05/29 10:55:23;;;;;;;11.77;11.27;;;24.50;59.90;;;;;;3598158;39;20853;-47
2021/05/29 10:57:52;;;;;;;11.70;11.23;;;24.50;60.00;;;;;;3597384;39;20487;-49
2021/05/29 11:00:50;;;;;;;12.03;11.53;;;24.50;60.00;;;;;;3586411;39;20891;-47
2021/05/29 11:03:27;;;;;;;11.27;10.83;;;24.50;60.00;;;;;;3596184;39;20487;-47
2021/05/29 11:05:56;;;;;;;11.57;11.03;;;24.50;60.00;;;;;;3597697;39;20944;-47
2021/05/29 11:08:52;;;;;;;11.93;11.43;;;24.50;60.00;;;;;;3597072;39;20476;-48
2021/05/29 11:12:01;;;;;;;10.87;10.47;;;24.40;60.10;;;;;;3596539;39;20487;-47
2021/05/29 11:14:30;;;;;;;11.30;10.80;;;24.40;60.10;;;;;;3586170;39;20585;-47
2021/05/29 11:17:13;;;;;;;10.90;10.50;;;24.40;60.10;;;;;;3597245;39;20787;-47
2021/05/29 11:19:42;;;;;;;10.47;10.07;;;24.40;60.20;;;;;;3597821;39;20757;-47
2021/05/29 11:22:11;;;;;;;11.33;10.80;;;24.40;60.20;;;;;;3598279;39;20498;-48
2021/05/29 11:24:40;;;;;;;11.57;11.07;;;24.40;60.20;;;;;;3597294;39;20597;-47
2021/05/29 11:27:08;;;;;;;11.50;11.10;;;24.40;60.30;;;;;;3596492;39;20510;-47
2021/05/29 11:29:49;;;;;;;11.90;11.40;;;24.40;60.30;;;;;;3595469;39;20515;-48
2021/05/29 11:32:16;;;;;;;11.97;11.40;;;24.40;60.40;;;;;;3602683;39;20523;-47
2021/05/29 11:34:43;;;;;;;11.93;11.43;;;24.40;60.40;;;;;;3610187;39;20544;-48
2021/05/29 11:37:14;;;;;;;11.40;11.00;;;24.40;60.40;;;;;;3606111;39;20472;-47
2021/05/29 11:39:51;;;;;;;11.40;11.00;;;24.40;60.50;;;;;;3599020;39;20496;-48
2021/05/29 11:42:17;;;;;;;10.73;10.33;;;24.40;60.50;;;;;;3606301;39;20475;-48
2021/05/29 11:44:44;;;;;;;11.50;11.00;;;24.40;60.50;;;;;;3607490;39;20491;-48
2021/05/29 11:47:17;;;;;;;10.47;10.07;;;24.30;60.50;;;;;;3606740;39;20478;-48
2021/05/29 11:49:44;;;;;;;10.83;10.43;;;24.30;60.50;;;;;;3606056;39;20794;-48
2021/05/29 11:52:11;;;;;;;10.73;10.27;;;24.30;61.30;;;;;;3601622;39;20488;-48
2021/05/29 11:54:39;;;;;;;11.52;11.02;;;24.30;60.50;;;;;;3603783;39;20909;-47
2021/05/29 11:57:07;;;;;;;11.73;11.23;;;24.30;60.60;;;;;;3608557;39;20306;-48
2021/05/29 11:59:33;;;;;;;11.83;11.20;;;24.30;60.60;;;;;;3608307;39;20498;-48
2021/05/29 12:02:00;;;;;;;11.40;10.90;;;24.30;60.70;;;;;;3605624;39;20487;-48
2021/05/29 12:04:29;;;;;;;10.80;10.40;;;24.30;60.70;;;;;;3607352;39;20479;-47
2021/05/29 12:06:57;;;;;;;11.80;11.30;;;24.30;60.70;;;;;;3605819;39;20627;-47
2021/05/29 12:09:25;;;;;;;11.30;10.80;;;24.30;60.80;;;;;;3605423;39;20875;-48
2021/05/29 12:11:53;;;;;;;11.50;11.00;;;24.30;60.90;;;;;;3605084;39;20494;-47
2021/05/29 12:14:22;;;;;;;10.60;10.20;;;24.20;60.90;;;;;;3604724;39;20541;-48
2021/05/29 12:16:54;;;;;;;11.30;10.87;;;24.20;60.90;;;;;;3605534;39;20475;-47
2021/05/29 12:19:33;;;;;;;11.30;10.90;;;24.20;60.90;;;;;;3606489;39;20961;-48
2021/05/29 12:22:01;;;;;;;11.87;11.37;;;24.20;60.90;;;;;;3606697;39;20479;-47
2021/05/29 12:24:36;;;;;;;11.57;11.07;;;24.20;61.00;;;;;;3606882;39;20489;-48
2021/05/29 12:27:03;;;;;;;10.87;10.47;;;24.20;61.00;;;;;;3609579;39;20810;-48
2021/05/29 12:29:30;;;;;;;11.27;10.77;;;24.20;61.40;;;;;;3609190;39;20506;-47
2021/05/29 12:31:59;;;;;;;10.73;10.33;;;24.20;61.10;;;;;;3608545;39;21061;-48
2021/05/29 12:34:29;;;;;;;10.60;10.10;;;24.20;61.10;;;;;;3608954;39;20767;-48
2021/05/29 12:37:01;;;;;;;11.97;11.37;;;24.20;61.20;;;;;;3608123;39;20788;-47
2021/05/29 12:39:49;;;;;;;10.40;10.00;;;24.20;61.20;;;;;;3607696;39;20871;-47
2021/05/29 12:42:23;;;;;;;10.80;10.40;;;24.20;61.20;;;;;;3607888;39;20490;-48
2021/05/29 12:44:52;;;;;;;10.83;10.40;;;24.20;61.30;;;;;;3607643;39;20491;-48